Flight Track Log - Related Links

Times and Time Zones

All times are in EDT time to prevent confusion due to time zone crossing. See the N400PU flight status page for this flight to view local times or setup timezone preferences in your user account.

Time Position Orientation Groundspeed Altitude Reporting Facility
EDT Latitude Longitude Course Direction KTS MPH feet Rate Location/Type
Wed 09:23:24 PM 40.7111 -83.9875 263° West 185 213 2,500  Level Indianapolis Center
Wed 09:24:26 PM 40.6653 -83.9456 145° Southeast 243 280 5,000 2,565 Climbing Indianapolis Center
Wed 09:25:00 PM 40.7022 -84.0541 256° West  Level FlightAware Approximate
Wed 09:25:28 PM 40.6283 -84.0256 239° Southwest 265 305 7,800  Level Indianapolis Center
Wed 09:26:00 PM 40.6823 -84.1553 255° West  Level FlightAware Approximate
Wed 09:26:17 PM 40.6217 -84.1261 265° West 277 319 10,000  Level Indianapolis Center
Wed 09:27:00 PM 40.6798 -84.2512 255° West  Level FlightAware Approximate
Wed 09:27:19 PM 40.6133 -84.2469 265° West 328 377 10,000  Level Indianapolis Center
Wed 09:28:00 PM 40.6649 -84.3534 263° West  Level FlightAware Approximate
Wed 09:28:20 PM 40.6061 -84.3692 266° West 338 389 10,000  Level Indianapolis Center
Wed 09:29:22 PM 40.5972 -84.4908 265° West 336 387 10,000  Level Indianapolis Center
Wed 09:30:24 PM 40.5897 -84.6169 266° West 345 397 10,000  Level Indianapolis Center
Wed 09:31:25 PM 40.5800 -84.7433 264° West 348 400 10,000  Level Indianapolis Center
Wed 09:32:27 PM 40.5725 -84.8658 265° West 343 395 10,000  Level Indianapolis Center
Wed 09:33:28 PM 40.5636 -84.9931 265° West 338 389 10,000  Level Indianapolis Center
Wed 09:34:42 PM 40.5525 -85.1647 265° West 339 390 10,000  Level Indianapolis Center
Wed 09:35:24 PM 40.5461 -85.2378 263° West 341 392 10,000  Level Chicago Center
Wed 09:36:26 PM 40.5372 -85.3636 265° West 346 398 10,000  Level Chicago Center
Wed 09:37:28 PM 40.5272 -85.4881 264° West 345 397 10,000 -53 Level Chicago Center
Wed 09:38:19 PM 40.5172 -85.6197 264° West 348 400 9,900 -194 Descending Chicago Center
Wed 09:38:30 PM 40.5175 -85.6400 271° West 350 403 9,800 -689 Descending Chicago Center
Wed 09:39:20 PM 40.5097 -85.7342 264° West 316 364 9,200 -774 Descending Chicago Center
Wed 09:39:32 PM 40.5083 -85.7556 265° West 325 374 9,000 -1,000 Descending Chicago Center
Wed 09:40:20 PM 40.5003 -85.8458 263° West 285 328 8,200 -871 Descending Chicago Center
Wed 09:40:34 PM 40.5000 -85.8592 268° West 294 338 8,100 -689 Descending Chicago Center
Wed 09:41:21 PM 40.4931 -85.9467 264° West 290 334 7,500 -774 Descending Chicago Center
Wed 09:41:36 PM 40.4919 -85.9656 266° West 293 337 7,300 -885 Descending Chicago Center
Wed 09:42:22 PM 40.4836 -86.0525 263° West 279 321 6,600 -774 Descending Chicago Center
Wed 09:42:38 PM 40.4847 -86.0658 276° West 285 328 6,500 -800 Descending Chicago Center
Wed 09:43:22 PM 40.4764 -86.1506 263° West 275 316 5,800 -871 Descending Chicago Center
Wed 09:43:40 PM 40.4753 -86.1839 268° West 276 318 5,600 -787 Descending Chicago Center
Wed 09:44:23 PM 40.4686 -86.2539 263° West 269 310 5,000 -774 Descending Chicago Center
Wed 09:44:42 PM 40.4672 -86.2811 266° West 272 313 4,800 -700 Descending Chicago Center
Wed 09:45:23 PM 40.4611 -86.3547 264° West 269 310 4,300 -581 Descending Chicago Center
Wed 09:45:44 PM 40.4589 -86.3789 263° West 271 312 4,200 -590 Descending Chicago Center
Wed 09:46:24 PM 40.4517 -86.4497 262° West 271 312 3,700 -677 Descending Chicago Center
Wed 09:46:46 PM 40.4522 -86.4747 272° West 269 310 3,500 -689 Descending Chicago Center
Wed 09:47:25 PM 40.4442 -86.5475 262° West 258 297 3,000 -484 Descending Chicago Center
Wed 09:47:48 PM 40.4444 -86.5689 271° West 265 305 3,000  Level Chicago Center
Wed 09:48:25 PM 40.4367 -86.6400 262° West 264 304 3,000  Level Chicago Center
Wed 09:48:50 PM 40.4361 -86.6628 268° West 262 302 3,000 -69 Level Chicago Center
Wed 09:49:52 PM 40.4278 -86.7711 264° West 262 302 2,900 -97 Descending Chicago Center

Login

Don't have an account? Register now (free) for customized features, flight alerts, and more!